sensor_id;sensor_type;location;lat;lon;timestamp;P1;durP1;ratioP1;P2;durP2;ratioP2
22713;SDS011;11524;50.846;4.326;2022-09-09T00:04:18;3.75;;;1.10;;
22713;SDS011;11524;50.846;4.326;2022-09-09T00:13:01;3.22;;;0.88;;
22713;SDS011;11524;50.846;4.326;2022-09-09T00:15:42;1.98;;;1.02;;
22713;SDS011;11524;50.846;4.326;2022-09-09T00:23:43;1.17;;;0.70;;
22713;SDS011;11524;50.846;4.326;2022-09-09T00:29:04;3.28;;;1.00;;
22713;SDS011;11524;50.846;4.326;2022-09-09T00:32:04;3.65;;;1.00;;
22713;SDS011;11524;50.846;4.326;2022-09-09T00:34:46;3.58;;;0.95;;
22713;SDS011;11524;50.846;4.326;2022-09-09T00:37:13;1.70;;;0.80;;
22713;SDS011;11524;50.846;4.326;2022-09-09T00:39:41;1.90;;;0.80;;
22713;SDS011;11524;50.846;4.326;2022-09-09T00:42:19;2.58;;;1.02;;
22713;SDS011;11524;50.846;4.326;2022-09-09T00:48:11;2.35;;;0.80;;
22713;SDS011;11524;50.846;4.326;2022-09-09T01:01:35;1.88;;;0.80;;
22713;SDS011;11524;50.846;4.326;2022-09-09T01:04:01;2.30;;;0.88;;
22713;SDS011;11524;50.846;4.326;2022-09-09T01:06:35;1.63;;;0.82;;
22713;SDS011;11524;50.846;4.326;2022-09-09T01:12:12;2.50;;;0.80;;
22713;SDS011;11524;50.846;4.326;2022-09-09T01:14:48;2.42;;;0.90;;
22713;SDS011;11524;50.846;4.326;2022-09-09T01:23:04;1.67;;;0.70;;
22713;SDS011;11524;50.846;4.326;2022-09-09T01:28:45;2.55;;;1.00;;
22713;SDS011;11524;50.846;4.326;2022-09-09T01:31:15;2.30;;;0.80;;
22713;SDS011;11524;50.846;4.326;2022-09-09T01:33:44;1.48;;;0.60;;
22713;SDS011;11524;50.846;4.326;2022-09-09T01:36:13;1.90;;;0.98;;
22713;SDS011;11524;50.846;4.326;2022-09-09T01:38:45;2.40;;;1.00;;
22713;SDS011;11524;50.846;4.326;2022-09-09T01:41:10;2.05;;;1.00;;
22713;SDS011;11524;50.846;4.326;2022-09-09T01:43:36;1.30;;;0.80;;
22713;SDS011;11524;50.846;4.326;2022-09-09T01:46:02;2.58;;;1.13;;
22713;SDS011;11524;50.846;4.326;2022-09-09T01:48:28;2.38;;;0.80;;
22713;SDS011;11524;50.846;4.326;2022-09-09T01:50:54;2.17;;;0.93;;
22713;SDS011;11524;50.846;4.326;2022-09-09T01:53:20;3.25;;;0.73;;
22713;SDS011;11524;50.846;4.326;2022-09-09T01:55:51;1.42;;;0.68;;
22713;SDS011;11524;50.846;4.326;2022-09-09T01:58:29;1.83;;;0.70;;
22713;SDS011;11524;50.846;4.326;2022-09-09T02:03:57;2.70;;;0.75;;
22713;SDS011;11524;50.846;4.326;2022-09-09T02:06:34;2.17;;;0.82;;
22713;SDS011;11524;50.846;4.326;2022-09-09T02:09:04;2.63;;;1.10;;
22713;SDS011;11524;50.846;4.326;2022-09-09T02:11:31;2.47;;;0.90;;
22713;SDS011;11524;50.846;4.326;2022-09-09T02:14:00;2.50;;;1.00;;
22713;SDS011;11524;50.846;4.326;2022-09-09T02:16:29;2.15;;;0.77;;
22713;SDS011;11524;50.846;4.326;2022-09-09T02:21:48;2.72;;;0.90;;
22713;SDS011;11524;50.846;4.326;2022-09-09T02:24:15;3.30;;;1.27;;
22713;SDS011;11524;50.846;4.326;2022-09-09T02:26:42;2.95;;;0.90;;
22713;SDS011;11524;50.846;4.326;2022-09-09T02:29:14;1.75;;;0.80;;
22713;SDS011;11524;50.846;4.326;2022-09-09T02:31:45;2.10;;;0.77;;
22713;SDS011;11524;50.846;4.326;2022-09-09T02:34:12;4.28;;;0.98;;
22713;SDS011;11524;50.846;4.326;2022-09-09T02:36:40;3.20;;;1.10;;
22713;SDS011;11524;50.846;4.326;2022-09-09T02:39:08;4.63;;;1.00;;
22713;SDS011;11524;50.846;4.326;2022-09-09T02:41:37;3.05;;;1.00;;
22713;SDS011;11524;50.846;4.326;2022-09-09T02:44:13;2.65;;;0.98;;
22713;SDS011;11524;50.846;4.326;2022-09-09T02:52:26;3.47;;;1.17;;
22713;SDS011;11524;50.846;4.326;2022-09-09T02:54:55;1.73;;;0.95;;
22713;SDS011;11524;50.846;4.326;2022-09-09T02:57:30;2.72;;;1.20;;
22713;SDS011;11524;50.846;4.326;2022-09-09T02:59:58;2.22;;;1.00;;
22713;SDS011;11524;50.846;4.326;2022-09-09T03:02:25;3.55;;;1.02;;
22713;SDS011;11524;50.846;4.326;2022-09-09T03:04:51;3.13;;;1.17;;
22713;SDS011;11524;50.846;4.326;2022-09-09T03:07:17;3.50;;;0.90;;
22713;SDS011;11524;50.846;4.326;2022-09-09T03:09:43;3.42;;;1.27;;
22713;SDS011;11524;50.846;4.326;2022-09-09T03:12:10;2.50;;;1.00;;
22713;SDS011;11524;50.846;4.326;2022-09-09T03:14:36;3.10;;;0.95;;
22713;SDS011;11524;50.846;4.326;2022-09-09T03:17:05;2.78;;;1.23;;
22713;SDS011;11524;50.846;4.326;2022-09-09T03:19:38;2.22;;;0.93;;
22713;SDS011;11524;50.846;4.326;2022-09-09T03:22:04;3.80;;;1.05;;
22713;SDS011;11524;50.846;4.326;2022-09-09T03:24:32;3.42;;;1.13;;
22713;SDS011;11524;50.846;4.326;2022-09-09T03:26:58;3.83;;;0.90;;
22713;SDS011;11524;50.846;4.326;2022-09-09T03:29:23;2.40;;;1.02;;
22713;SDS011;11524;50.846;4.326;2022-09-09T03:31:49;4.80;;;1.20;;
22713;SDS011;11524;50.846;4.326;2022-09-09T03:34:16;5.00;;;1.20;;
22713;SDS011;11524;50.846;4.326;2022-09-09T03:36:41;3.10;;;0.93;;
22713;SDS011;11524;50.846;4.326;2022-09-09T03:39:07;3.97;;;1.08;;
22713;SDS011;11524;50.846;4.326;2022-09-09T03:41:32;3.83;;;1.45;;
22713;SDS011;11524;50.846;4.326;2022-09-09T03:43:59;6.60;;;1.33;;
22713;SDS011;11524;50.846;4.326;2022-09-09T03:46:25;3.85;;;1.20;;
22713;SDS011;11524;50.846;4.326;2022-09-09T03:48:54;3.58;;;1.20;;
22713;SDS011;11524;50.846;4.326;2022-09-09T03:51:20;4.85;;;1.45;;
22713;SDS011;11524;50.846;4.326;2022-09-09T03:53:46;2.22;;;1.10;;
22713;SDS011;11524;50.846;4.326;2022-09-09T03:56:12;3.67;;;1.20;;
22713;SDS011;11524;50.846;4.326;2022-09-09T03:58:38;5.05;;;1.02;;
22713;SDS011;11524;50.846;4.326;2022-09-09T04:01:11;3.65;;;1.15;;
22713;SDS011;11524;50.846;4.326;2022-09-09T04:03:39;4.60;;;1.30;;
22713;SDS011;11524;50.846;4.326;2022-09-09T04:06:06;5.90;;;1.58;;
22713;SDS011;11524;50.846;4.326;2022-09-09T04:08:34;3.05;;;1.05;;
22713;SDS011;11524;50.846;4.326;2022-09-09T04:11:01;2.65;;;1.17;;
22713;SDS011;11524;50.846;4.326;2022-09-09T04:13:30;2.40;;;1.15;;
22713;SDS011;11524;50.846;4.326;2022-09-09T04:15:57;3.55;;;1.20;;
22713;SDS011;11524;50.846;4.326;2022-09-09T04:18:24;3.88;;;1.20;;
22713;SDS011;11524;50.846;4.326;2022-09-09T04:20:51;4.45;;;1.45;;
22713;SDS011;11524;50.846;4.326;2022-09-09T04:23:18;4.55;;;1.50;;
22713;SDS011;11524;50.846;4.326;2022-09-09T04:25:48;3.58;;;1.10;;
22713;SDS011;11524;50.846;4.326;2022-09-09T04:28:16;3.80;;;1.20;;
22713;SDS011;11524;50.846;4.326;2022-09-09T04:30:42;4.97;;;1.33;;
22713;SDS011;11524;50.846;4.326;2022-09-09T04:33:09;3.47;;;0.85;;
22713;SDS011;11524;50.846;4.326;2022-09-09T04:35:36;4.53;;;1.40;;
22713;SDS011;11524;50.846;4.326;2022-09-09T04:38:02;3.85;;;1.20;;
22713;SDS011;11524;50.846;4.326;2022-09-09T04:40:28;4.07;;;1.23;;
22713;SDS011;11524;50.846;4.326;2022-09-09T04:42:57;3.78;;;1.20;;
22713;SDS011;11524;50.846;4.326;2022-09-09T04:45:23;3.97;;;1.40;;
22713;SDS011;11524;50.846;4.326;2022-09-09T04:47:51;3.72;;;1.25;;
22713;SDS011;11524;50.846;4.326;2022-09-09T04:50:17;5.25;;;1.20;;
22713;SDS011;11524;50.846;4.326;2022-09-09T04:52:43;3.58;;;1.20;;
22713;SDS011;11524;50.846;4.326;2022-09-09T04:55:09;5.22;;;1.38;;
22713;SDS011;11524;50.846;4.326;2022-09-09T04:57:35;4.82;;;1.40;;
22713;SDS011;11524;50.846;4.326;2022-09-09T05:00:00;3.83;;;1.33;;
22713;SDS011;11524;50.846;4.326;2022-09-09T05:02:27;5.30;;;1.30;;
22713;SDS011;11524;50.846;4.326;2022-09-09T05:04:53;3.88;;;1.27;;
22713;SDS011;11524;50.846;4.326;2022-09-09T05:07:18;3.55;;;1.20;;
22713;SDS011;11524;50.846;4.326;2022-09-09T05:09:44;5.25;;;1.35;;
22713;SDS011;11524;50.846;4.326;2022-09-09T05:12:10;5.07;;;1.40;;
22713;SDS011;11524;50.846;4.326;2022-09-09T05:14:36;5.75;;;1.52;;
22713;SDS011;11524;50.846;4.326;2022-09-09T05:17:02;5.47;;;1.40;;
22713;SDS011;11524;50.846;4.326;2022-09-09T05:19:28;4.28;;;1.35;;
22713;SDS011;11524;50.846;4.326;2022-09-09T05:21:56;3.08;;;1.38;;
22713;SDS011;11524;50.846;4.326;2022-09-09T05:24:22;5.18;;;1.52;;
22713;SDS011;11524;50.846;4.326;2022-09-09T05:26:48;5.20;;;1.40;;
22713;SDS011;11524;50.846;4.326;2022-09-09T05:29:14;6.13;;;1.40;;
22713;SDS011;11524;50.846;4.326;2022-09-09T05:31:39;9.05;;;1.67;;
22713;SDS011;11524;50.846;4.326;2022-09-09T05:34:05;7.15;;;1.60;;
22713;SDS011;11524;50.846;4.326;2022-09-09T05:36:31;8.10;;;1.80;;
22713;SDS011;11524;50.846;4.326;2022-09-09T05:38:57;8.57;;;1.88;;
22713;SDS011;11524;50.846;4.326;2022-09-09T05:41:23;9.35;;;1.70;;
22713;SDS011;11524;50.846;4.326;2022-09-09T05:43:48;11.65;;;1.98;;
22713;SDS011;11524;50.846;4.326;2022-09-09T05:46:20;10.18;;;2.47;;
22713;SDS011;11524;50.846;4.326;2022-09-09T05:48:50;8.75;;;2.10;;
22713;SDS011;11524;50.846;4.326;2022-09-09T05:51:18;10.73;;;1.90;;
22713;SDS011;11524;50.846;4.326;2022-09-09T05:53:46;16.35;;;1.90;;
22713;SDS011;11524;50.846;4.326;2022-09-09T05:56:20;10.32;;;2.10;;
22713;SDS011;11524;50.846;4.326;2022-09-09T05:58:47;13.10;;;2.40;;
22713;SDS011;11524;50.846;4.326;2022-09-09T06:01:15;8.45;;;2.20;;
22713;SDS011;11524;50.846;4.326;2022-09-09T06:03:43;7.45;;;1.90;;
22713;SDS011;11524;50.846;4.326;2022-09-09T06:06:11;10.20;;;1.98;;
22713;SDS011;11524;50.846;4.326;2022-09-09T06:08:42;10.90;;;2.03;;
22713;SDS011;11524;50.846;4.326;2022-09-09T06:11:10;7.35;;;1.90;;
22713;SDS011;11524;50.846;4.326;2022-09-09T06:13:36;8.90;;;2.03;;
22713;SDS011;11524;50.846;4.326;2022-09-09T06:16:04;9.23;;;1.80;;
22713;SDS011;11524;50.846;4.326;2022-09-09T06:18:33;8.63;;;1.80;;
22713;SDS011;11524;50.846;4.326;2022-09-09T06:21:02;11.75;;;2.53;;
22713;SDS011;11524;50.846;4.326;2022-09-09T06:23:32;10.18;;;2.40;;
22713;SDS011;11524;50.846;4.326;2022-09-09T06:26:00;10.20;;;2.03;;
22713;SDS011;11524;50.846;4.326;2022-09-09T06:28:35;10.82;;;1.83;;
22713;SDS011;11524;50.846;4.326;2022-09-09T06:31:01;9.23;;;2.08;;
22713;SDS011;11524;50.846;4.326;2022-09-09T06:33:33;8.77;;;2.13;;
22713;SDS011;11524;50.846;4.326;2022-09-09T06:36:00;8.77;;;1.88;;
22713;SDS011;11524;50.846;4.326;2022-09-09T06:38:28;9.82;;;1.92;;
22713;SDS011;11524;50.846;4.326;2022-09-09T06:40:54;7.22;;;1.65;;
22713;SDS011;11524;50.846;4.326;2022-09-09T06:43:23;9.05;;;2.13;;
22713;SDS011;11524;50.846;4.326;2022-09-09T06:45:56;9.95;;;2.10;;
22713;SDS011;11524;50.846;4.326;2022-09-09T06:48:23;6.97;;;1.90;;
22713;SDS011;11524;50.846;4.326;2022-09-09T06:50:50;6.20;;;1.52;;
22713;SDS011;11524;50.846;4.326;2022-09-09T06:53:37;4.85;;;1.42;;
22713;SDS011;11524;50.846;4.326;2022-09-09T06:58:36;8.25;;;1.70;;
22713;SDS011;11524;50.846;4.326;2022-09-09T07:01:10;7.03;;;1.50;;
22713;SDS011;11524;50.846;4.326;2022-09-09T07:03:37;6.28;;;2.08;;
22713;SDS011;11524;50.846;4.326;2022-09-09T07:06:04;9.95;;;1.95;;
22713;SDS011;11524;50.846;4.326;2022-09-09T07:08:30;5.90;;;1.73;;
22713;SDS011;11524;50.846;4.326;2022-09-09T07:11:03;7.20;;;2.08;;
22713;SDS011;11524;50.846;4.326;2022-09-09T07:13:30;7.60;;;1.70;;
22713;SDS011;11524;50.846;4.326;2022-09-09T07:16:03;10.77;;;2.22;;
22713;SDS011;11524;50.846;4.326;2022-09-09T07:18:36;6.30;;;1.67;;
22713;SDS011;11524;50.846;4.326;2022-09-09T07:21:02;6.00;;;1.75;;
22713;SDS011;11524;50.846;4.326;2022-09-09T07:23:29;8.52;;;1.67;;
22713;SDS011;11524;50.846;4.326;2022-09-09T07:25:56;8.82;;;1.95;;
22713;SDS011;11524;50.846;4.326;2022-09-09T07:28:23;7.28;;;1.67;;
22713;SDS011;11524;50.846;4.326;2022-09-09T07:30:55;6.82;;;1.90;;
22713;SDS011;11524;50.846;4.326;2022-09-09T07:33:22;8.73;;;1.85;;
22713;SDS011;11524;50.846;4.326;2022-09-09T07:35:49;6.22;;;1.92;;
22713;SDS011;11524;50.846;4.326;2022-09-09T07:38:15;7.70;;;2.22;;
22713;SDS011;11524;50.846;4.326;2022-09-09T07:40:41;6.65;;;1.70;;
22713;SDS011;11524;50.846;4.326;2022-09-09T07:43:07;5.90;;;1.75;;
22713;SDS011;11524;50.846;4.326;2022-09-09T07:45:33;6.03;;;1.70;;
22713;SDS011;11524;50.846;4.326;2022-09-09T07:48:00;9.32;;;1.90;;
22713;SDS011;11524;50.846;4.326;2022-09-09T07:50:26;5.78;;;1.90;;
22713;SDS011;11524;50.846;4.326;2022-09-09T07:52:55;7.53;;;1.73;;
22713;SDS011;11524;50.846;4.326;2022-09-09T07:55:21;5.30;;;1.55;;
22713;SDS011;11524;50.846;4.326;2022-09-09T07:57:50;7.90;;;1.83;;
22713;SDS011;11524;50.846;4.326;2022-09-09T08:00:16;10.55;;;1.83;;
22713;SDS011;11524;50.846;4.326;2022-09-09T08:02:43;11.80;;;1.98;;
22713;SDS011;11524;50.846;4.326;2022-09-09T08:05:09;11.77;;;2.10;;
22713;SDS011;11524;50.846;4.326;2022-09-09T08:07:35;10.07;;;2.17;;
22713;SDS011;11524;50.846;4.326;2022-09-09T08:10:09;11.13;;;1.73;;
22713;SDS011;11524;50.846;4.326;2022-09-09T08:12:34;7.68;;;2.35;;
22713;SDS011;11524;50.846;4.326;2022-09-09T08:15:00;6.40;;;1.70;;
22713;SDS011;11524;50.846;4.326;2022-09-09T08:17:26;7.40;;;1.70;;
22713;SDS011;11524;50.846;4.326;2022-09-09T08:19:51;6.50;;;1.65;;
22713;SDS011;11524;50.846;4.326;2022-09-09T08:22:18;9.70;;;1.60;;
22713;SDS011;11524;50.846;4.326;2022-09-09T08:24:44;5.70;;;1.67;;
22713;SDS011;11524;50.846;4.326;2022-09-09T08:27:09;5.18;;;1.77;;
22713;SDS011;11524;50.846;4.326;2022-09-09T08:29:35;5.90;;;1.75;;
22713;SDS011;11524;50.846;4.326;2022-09-09T08:32:02;6.68;;;1.50;;
22713;SDS011;11524;50.846;4.326;2022-09-09T08:34:28;7.65;;;2.20;;
22713;SDS011;11524;50.846;4.326;2022-09-09T08:36:55;5.13;;;1.65;;
22713;SDS011;11524;50.846;4.326;2022-09-09T08:39:21;5.78;;;1.80;;
22713;SDS011;11524;50.846;4.326;2022-09-09T08:49:47;8.35;;;1.92;;
22713;SDS011;11524;50.846;4.326;2022-09-09T08:52:48;6.88;;;2.28;;
22713;SDS011;11524;50.846;4.326;2022-09-09T08:55:33;7.70;;;1.80;;
22713;SDS011;11524;50.846;4.326;2022-09-09T09:03:51;6.72;;;2.13;;
22713;SDS011;11524;50.846;4.326;2022-09-09T09:09:02;8.48;;;2.17;;
22713;SDS011;11524;50.846;4.326;2022-09-09T09:11:58;6.43;;;1.40;;
22713;SDS011;11524;50.846;4.326;2022-09-09T09:14:28;7.88;;;1.45;;
22713;SDS011;11524;50.846;4.326;2022-09-09T09:19:32;12.07;;;2.67;;
22713;SDS011;11524;50.846;4.326;2022-09-09T09:22:06;10.65;;;2.20;;
22713;SDS011;11524;50.846;4.326;2022-09-09T09:27:13;12.73;;;2.80;;
22713;SDS011;11524;50.846;4.326;2022-09-09T09:29:44;12.68;;;2.90;;
22713;SDS011;11524;50.846;4.326;2022-09-09T09:32:13;8.95;;;3.33;;
22713;SDS011;11524;50.846;4.326;2022-09-09T09:34:49;9.68;;;3.10;;
22713;SDS011;11524;50.846;4.326;2022-09-09T09:37:31;10.63;;;2.92;;
22713;SDS011;11524;50.846;4.326;2022-09-09T09:40:09;11.98;;;2.58;;
22713;SDS011;11524;50.846;4.326;2022-09-09T09:42:38;10.77;;;2.83;;
22713;SDS011;11524;50.846;4.326;2022-09-09T09:45:26;9.93;;;2.40;;
22713;SDS011;11524;50.846;4.326;2022-09-09T09:48:14;10.55;;;2.97;;
22713;SDS011;11524;50.846;4.326;2022-09-09T09:53:24;15.25;;;3.55;;
22713;SDS011;11524;50.846;4.326;2022-09-09T09:56:00;8.80;;;2.95;;
22713;SDS011;11524;50.846;4.326;2022-09-09T09:58:48;8.95;;;3.13;;
22713;SDS011;11524;50.846;4.326;2022-09-09T10:01:22;8.55;;;3.50;;
22713;SDS011;11524;50.846;4.326;2022-09-09T10:04:00;9.25;;;3.65;;
22713;SDS011;11524;50.846;4.326;2022-09-09T10:06:35;7.88;;;3.33;;
22713;SDS011;11524;50.846;4.326;2022-09-09T10:09:24;10.30;;;3.90;;
22713;SDS011;11524;50.846;4.326;2022-09-09T10:15:06;14.95;;;3.53;;
22713;SDS011;11524;50.846;4.326;2022-09-09T10:21:00;8.95;;;2.97;;
22713;SDS011;11524;50.846;4.326;2022-09-09T10:37:52;6.70;;;2.47;;
22713;SDS011;11524;50.846;4.326;2022-09-09T10:46:15;6.57;;;2.30;;
22713;SDS011;11524;50.846;4.326;2022-09-09T10:52:12;7.70;;;2.90;;
22713;SDS011;11524;50.846;4.326;2022-09-09T10:54:59;5.07;;;2.38;;
22713;SDS011;11524;50.846;4.326;2022-09-09T10:57:37;9.65;;;2.75;;
22713;SDS011;11524;50.846;4.326;2022-09-09T11:00:24;10.43;;;2.63;;
22713;SDS011;11524;50.846;4.326;2022-09-09T11:03:03;4.80;;;2.10;;
22713;SDS011;11524;50.846;4.326;2022-09-09T11:05:38;7.60;;;2.67;;
22713;SDS011;11524;50.846;4.326;2022-09-09T11:08:12;6.50;;;2.53;;
22713;SDS011;11524;50.846;4.326;2022-09-09T11:13:26;5.68;;;2.45;;
22713;SDS011;11524;50.846;4.326;2022-09-09T11:19:21;6.75;;;2.35;;
22713;SDS011;11524;50.846;4.326;2022-09-09T11:21:49;6.88;;;1.90;;
22713;SDS011;11524;50.846;4.326;2022-09-09T11:27:14;5.50;;;2.17;;
22713;SDS011;11524;50.846;4.326;2022-09-09T11:32:59;5.93;;;1.98;;
22713;SDS011;11524;50.846;4.326;2022-09-09T11:38:11;6.95;;;1.60;;
22713;SDS011;11524;50.846;4.326;2022-09-09T11:40:45;6.30;;;1.77;;
22713;SDS011;11524;50.846;4.326;2022-09-09T11:43:21;8.15;;;2.17;;
22713;SDS011;11524;50.846;4.326;2022-09-09T11:45:55;5.40;;;2.08;;
22713;SDS011;11524;50.846;4.326;2022-09-09T11:51:00;6.45;;;1.45;;
22713;SDS011;11524;50.846;4.326;2022-09-09T11:53:27;4.35;;;1.50;;
22713;SDS011;11524;50.846;4.326;2022-09-09T11:56:00;9.35;;;2.47;;
22713;SDS011;11524;50.846;4.326;2022-09-09T11:58:28;8.88;;;1.95;;
22713;SDS011;11524;50.846;4.326;2022-09-09T12:01:01;10.50;;;2.30;;
22713;SDS011;11524;50.846;4.326;2022-09-09T12:03:51;8.82;;;2.25;;
22713;SDS011;11524;50.846;4.326;2022-09-09T12:09:38;6.47;;;1.35;;
22713;SDS011;11524;50.846;4.326;2022-09-09T12:17:29;5.35;;;1.42;;
22713;SDS011;11524;50.846;4.326;2022-09-09T12:22:37;5.25;;;1.92;;
22713;SDS011;11524;50.846;4.326;2022-09-09T12:27:53;2.83;;;1.45;;
22713;SDS011;11524;50.846;4.326;2022-09-09T12:30:31;5.10;;;1.83;;
22713;SDS011;11524;50.846;4.326;2022-09-09T12:33:12;4.25;;;1.30;;
22713;SDS011;11524;50.846;4.326;2022-09-09T12:35:41;7.30;;;1.73;;
22713;SDS011;11524;50.846;4.326;2022-09-09T12:38:14;7.88;;;1.50;;
22713;SDS011;11524;50.846;4.326;2022-09-09T12:40:53;6.25;;;1.60;;
22713;SDS011;11524;50.846;4.326;2022-09-09T12:43:23;5.07;;;1.42;;
22713;SDS011;11524;50.846;4.326;2022-09-09T12:45:50;5.65;;;1.95;;
22713;SDS011;11524;50.846;4.326;2022-09-09T12:48:22;3.85;;;1.40;;
22713;SDS011;11524;50.846;4.326;2022-09-09T12:50:57;6.85;;;1.80;;
22713;SDS011;11524;50.846;4.326;2022-09-09T12:53:25;25.13;;;2.10;;
22713;SDS011;11524;50.846;4.326;2022-09-09T12:56:07;10.70;;;1.50;;
22713;SDS011;11524;50.846;4.326;2022-09-09T12:58:44;14.57;;;1.80;;
22713;SDS011;11524;50.846;4.326;2022-09-09T13:01:18;5.82;;;1.70;;
22713;SDS011;11524;50.846;4.326;2022-09-09T13:03:50;10.90;;;1.70;;
22713;SDS011;11524;50.846;4.326;2022-09-09T13:06:20;8.07;;;1.45;;
22713;SDS011;11524;50.846;4.326;2022-09-09T13:08:54;9.05;;;1.70;;
22713;SDS011;11524;50.846;4.326;2022-09-09T13:11:29;6.80;;;1.45;;
22713;SDS011;11524;50.846;4.326;2022-09-09T13:14:04;2.83;;;1.38;;
22713;SDS011;11524;50.846;4.326;2022-09-09T13:16:32;4.45;;;1.58;;
22713;SDS011;11524;50.846;4.326;2022-09-09T13:19:00;4.22;;;1.42;;
22713;SDS011;11524;50.846;4.326;2022-09-09T13:21:38;3.05;;;1.13;;
22713;SDS011;11524;50.846;4.326;2022-09-09T13:24:05;4.70;;;1.23;;
22713;SDS011;11524;50.846;4.326;2022-09-09T13:26:32;5.55;;;1.30;;
22713;SDS011;11524;50.846;4.326;2022-09-09T13:29:18;3.58;;;1.25;;
22713;SDS011;11524;50.846;4.326;2022-09-09T13:31:44;3.08;;;1.15;;
22713;SDS011;11524;50.846;4.326;2022-09-09T13:34:32;3.95;;;1.42;;
22713;SDS011;11524;50.846;4.326;2022-09-09T13:37:22;1.77;;;1.08;;
22713;SDS011;11524;50.846;4.326;2022-09-09T13:39:52;6.15;;;1.38;;
22713;SDS011;11524;50.846;4.326;2022-09-09T13:42:24;4.35;;;1.50;;
22713;SDS011;11524;50.846;4.326;2022-09-09T13:44:51;4.50;;;1.65;;
22713;SDS011;11524;50.846;4.326;2022-09-09T13:47:18;4.97;;;1.40;;
22713;SDS011;11524;50.846;4.326;2022-09-09T13:49:45;2.85;;;1.25;;
22713;SDS011;11524;50.846;4.326;2022-09-09T13:52:15;4.25;;;1.25;;
22713;SDS011;11524;50.846;4.326;2022-09-09T13:54:46;2.25;;;1.30;;
22713;SDS011;11524;50.846;4.326;2022-09-09T13:57:17;6.35;;;1.15;;
22713;SDS011;11524;50.846;4.326;2022-09-09T13:59:43;2.53;;;1.27;;
22713;SDS011;11524;50.846;4.326;2022-09-09T14:02:09;5.35;;;1.27;;
22713;SDS011;11524;50.846;4.326;2022-09-09T14:04:35;1.73;;;1.02;;
22713;SDS011;11524;50.846;4.326;2022-09-09T14:07:01;3.05;;;1.10;;
22713;SDS011;11524;50.846;4.326;2022-09-09T14:09:27;4.85;;;1.50;;
22713;SDS011;11524;50.846;4.326;2022-09-09T14:11:53;2.95;;;1.05;;
22713;SDS011;11524;50.846;4.326;2022-09-09T14:14:20;2.85;;;1.20;;
22713;SDS011;11524;50.846;4.326;2022-09-09T14:16:45;3.67;;;1.23;;
22713;SDS011;11524;50.846;4.326;2022-09-09T14:19:11;3.63;;;1.17;;
22713;SDS011;11524;50.846;4.326;2022-09-09T14:21:37;4.10;;;1.10;;
22713;SDS011;11524;50.846;4.326;2022-09-09T14:24:03;3.08;;;1.10;;
22713;SDS011;11524;50.846;4.326;2022-09-09T14:26:29;3.53;;;1.17;;
22713;SDS011;11524;50.846;4.326;2022-09-09T14:28:55;3.17;;;1.35;;
22713;SDS011;11524;50.846;4.326;2022-09-09T14:31:21;3.10;;;1.20;;
22713;SDS011;11524;50.846;4.326;2022-09-09T14:33:48;2.58;;;1.20;;
22713;SDS011;11524;50.846;4.326;2022-09-09T14:36:13;2.83;;;1.20;;
22713;SDS011;11524;50.846;4.326;2022-09-09T14:38:40;3.42;;;0.98;;
22713;SDS011;11524;50.846;4.326;2022-09-09T14:41:11;2.90;;;1.30;;
22713;SDS011;11524;50.846;4.326;2022-09-09T14:43:43;3.30;;;1.20;;
22713;SDS011;11524;50.846;4.326;2022-09-09T14:46:13;3.78;;;1.20;;
22713;SDS011;11524;50.846;4.326;2022-09-09T14:48:42;2.00;;;0.82;;
22713;SDS011;11524;50.846;4.326;2022-09-09T14:51:29;2.90;;;1.25;;
22713;SDS011;11524;50.846;4.326;2022-09-09T14:53:55;2.40;;;1.10;;
22713;SDS011;11524;50.846;4.326;2022-09-09T14:56:23;3.25;;;1.10;;
22713;SDS011;11524;50.846;4.326;2022-09-09T14:58:53;2.60;;;1.00;;
22713;SDS011;11524;50.846;4.326;2022-09-09T15:01:20;1.80;;;1.00;;
22713;SDS011;11524;50.846;4.326;2022-09-09T15:03:57;3.13;;;1.23;;
22713;SDS011;11524;50.846;4.326;2022-09-09T15:06:25;4.38;;;1.27;;
22713;SDS011;11524;50.846;4.326;2022-09-09T15:08:55;4.00;;;1.17;;
22713;SDS011;11524;50.846;4.326;2022-09-09T15:11:25;3.33;;;1.15;;
22713;SDS011;11524;50.846;4.326;2022-09-09T15:13:52;3.35;;;1.42;;
22713;SDS011;11524;50.846;4.326;2022-09-09T15:16:19;6.30;;;1.85;;
22713;SDS011;11524;50.846;4.326;2022-09-09T15:18:50;4.60;;;1.10;;
22713;SDS011;11524;50.846;4.326;2022-09-09T15:21:19;3.20;;;1.40;;
22713;SDS011;11524;50.846;4.326;2022-09-09T15:23:46;5.07;;;1.45;;
22713;SDS011;11524;50.846;4.326;2022-09-09T15:26:13;4.18;;;1.35;;
22713;SDS011;11524;50.846;4.326;2022-09-09T15:28:40;5.22;;;1.65;;
22713;SDS011;11524;50.846;4.326;2022-09-09T15:31:12;6.75;;;1.50;;
22713;SDS011;11524;50.846;4.326;2022-09-09T15:33:47;4.47;;;1.20;;
22713;SDS011;11524;50.846;4.326;2022-09-09T15:36:24;3.85;;;1.15;;
22713;SDS011;11524;50.846;4.326;2022-09-09T15:38:51;3.50;;;1.20;;
22713;SDS011;11524;50.846;4.326;2022-09-09T15:41:18;3.88;;;1.45;;
22713;SDS011;11524;50.846;4.326;2022-09-09T15:43:45;3.88;;;1.20;;
22713;SDS011;11524;50.846;4.326;2022-09-09T15:48:42;3.38;;;1.20;;
22713;SDS011;11524;50.846;4.326;2022-09-09T15:51:11;2.72;;;1.30;;
22713;SDS011;11524;50.846;4.326;2022-09-09T15:53:38;3.22;;;1.52;;
22713;SDS011;11524;50.846;4.326;2022-09-09T15:56:07;7.10;;;3.13;;
22713;SDS011;11524;50.846;4.326;2022-09-09T15:58:33;7.38;;;3.22;;
22713;SDS011;11524;50.846;4.326;2022-09-09T16:01:10;10.32;;;4.25;;
22713;SDS011;11524;50.846;4.326;2022-09-09T16:03:41;10.50;;;4.65;;
22713;SDS011;11524;50.846;4.326;2022-09-09T16:06:07;6.38;;;3.28;;
22713;SDS011;11524;50.846;4.326;2022-09-09T16:08:34;6.65;;;3.78;;
22713;SDS011;11524;50.846;4.326;2022-09-09T16:11:07;11.93;;;4.25;;
22713;SDS011;11524;50.846;4.326;2022-09-09T16:13:38;9.90;;;3.83;;
22713;SDS011;11524;50.846;4.326;2022-09-09T16:16:04;9.70;;;3.83;;
22713;SDS011;11524;50.846;4.326;2022-09-09T16:18:35;9.05;;;3.78;;
22713;SDS011;11524;50.846;4.326;2022-09-09T16:21:02;9.23;;;3.97;;
22713;SDS011;11524;50.846;4.326;2022-09-09T16:23:30;6.00;;;2.40;;
22713;SDS011;11524;50.846;4.326;2022-09-09T16:25:59;9.18;;;2.97;;
22713;SDS011;11524;50.846;4.326;2022-09-09T16:28:25;11.25;;;3.00;;
22713;SDS011;11524;50.846;4.326;2022-09-09T16:30:50;9.38;;;3.03;;
22713;SDS011;11524;50.846;4.326;2022-09-09T16:33:16;7.03;;;2.58;;
22713;SDS011;11524;50.846;4.326;2022-09-09T16:35:42;9.68;;;2.65;;
22713;SDS011;11524;50.846;4.326;2022-09-09T16:38:09;8.40;;;2.88;;
22713;SDS011;11524;50.846;4.326;2022-09-09T16:40:35;7.85;;;2.33;;
22713;SDS011;11524;50.846;4.326;2022-09-09T16:43:01;9.10;;;2.30;;
22713;SDS011;11524;50.846;4.326;2022-09-09T16:45:28;5.78;;;2.10;;
22713;SDS011;11524;50.846;4.326;2022-09-09T16:47:54;8.43;;;2.22;;
22713;SDS011;11524;50.846;4.326;2022-09-09T16:50:20;5.75;;;2.10;;
22713;SDS011;11524;50.846;4.326;2022-09-09T16:57:37;3.97;;;1.30;;
22713;SDS011;11524;50.846;4.326;2022-09-09T17:00:03;5.20;;;1.98;;
22713;SDS011;11524;50.846;4.326;2022-09-09T17:02:30;3.47;;;1.42;;
22713;SDS011;11524;50.846;4.326;2022-09-09T17:04:57;4.20;;;1.63;;
22713;SDS011;11524;50.846;4.326;2022-09-09T17:07:30;4.68;;;2.33;;
22713;SDS011;11524;50.846;4.326;2022-09-09T17:09:57;4.95;;;1.60;;
22713;SDS011;11524;50.846;4.326;2022-09-09T17:20:27;4.88;;;1.98;;
22713;SDS011;11524;50.846;4.326;2022-09-09T17:22:53;6.15;;;1.90;;
22713;SDS011;11524;50.846;4.326;2022-09-09T17:25:19;5.20;;;2.08;;
22713;SDS011;11524;50.846;4.326;2022-09-09T17:27:47;4.40;;;1.60;;
22713;SDS011;11524;50.846;4.326;2022-09-09T17:30:13;5.10;;;1.77;;
22713;SDS011;11524;50.846;4.326;2022-09-09T17:32:40;6.93;;;1.80;;
22713;SDS011;11524;50.846;4.326;2022-09-09T17:35:06;7.03;;;1.55;;
22713;SDS011;11524;50.846;4.326;2022-09-09T17:37:32;5.43;;;1.70;;
22713;SDS011;11524;50.846;4.326;2022-09-09T17:39:58;6.85;;;1.80;;